createdAt,value
2022-08-26T00:02:07.663Z,95005.84
2022-08-26T00:04:36.290Z,94995.19
2022-08-26T00:07:05.390Z,94998.00
2022-08-26T00:09:37.250Z,94998.31
2022-08-26T00:12:12.282Z,94998.31
2022-08-26T00:14:41.579Z,95001.63
2022-08-26T00:17:09.725Z,95001.72
2022-08-26T00:19:37.842Z,95001.72
2022-08-26T00:22:06.488Z,94997.03
2022-08-26T00:24:34.595Z,95000.28
2022-08-26T00:27:02.670Z,94993.38
2022-08-26T00:29:34.939Z,95003.59
2022-08-26T00:32:06.562Z,94997.31
2022-08-26T00:34:34.950Z,94993.53
2022-08-26T00:37:02.969Z,94999.50
2022-08-26T00:39:31.541Z,95003.25
2022-08-26T00:42:00.563Z,95008.09
2022-08-26T00:44:28.625Z,95002.28
2022-08-26T00:47:04.121Z,95006.03
2022-08-26T00:49:38.936Z,95015.16
2022-08-26T00:52:09.889Z,95016.72
2022-08-26T00:54:47.069Z,95011.38
2022-08-26T00:57:18.630Z,95009.03
2022-08-26T00:59:51.692Z,95014.19
2022-08-26T01:02:21.814Z,95010.09
2022-08-26T01:04:55.769Z,95012.78
2022-08-26T01:07:26.192Z,95018.59
2022-08-26T01:09:56.441Z,95019.19
2022-08-26T01:12:26.028Z,95019.47
2022-08-26T01:14:54.348Z,95012.31
2022-08-26T01:17:24.712Z,95020.84
2022-08-26T01:19:58.359Z,95019.19
2022-08-26T01:22:31.279Z,95018.44
2022-08-26T01:25:03.637Z,95015.63
2022-08-26T01:27:33.634Z,95023.34
2022-08-26T01:30:03.240Z,95020.16
2022-08-26T01:32:34.340Z,95010.28
2022-08-26T01:35:03.180Z,95009.69
2022-08-26T01:37:36.546Z,95009.09
2022-08-26T01:40:10.727Z,95015.44
2022-08-26T01:42:38.786Z,95016.84
2022-08-26T01:45:11.403Z,95020.94
2022-08-26T01:47:39.994Z,95006.53
2022-08-26T01:50:15.661Z,95014.72
2022-08-26T01:52:54.250Z,95014.03
2022-08-26T01:55:32.447Z,95019.38
2022-08-26T01:58:05.855Z,95014.03
2022-08-26T02:00:36.003Z,95016.72
2022-08-26T02:03:18.652Z,95018.44
2022-08-26T02:05:48.797Z,95013.22
2022-08-26T02:08:24.657Z,95011.53
2022-08-26T02:10:55.228Z,95010.56
2022-08-26T02:13:24.522Z,95008.53
2022-08-26T02:15:53.813Z,95015.41
2022-08-26T02:18:22.487Z,95015.72
2022-08-26T02:20:51.712Z,95011.28
2022-08-26T02:23:19.977Z,95009.81
2022-08-26T02:25:54.673Z,95018.50
2022-08-26T02:28:26.816Z,95021.44
2022-08-26T02:30:55.720Z,95016.13
2022-08-26T02:33:23.881Z,95012.28
2022-08-26T02:35:52.469Z,95016.03
2022-08-26T02:38:20.403Z,95009.63
2022-08-26T02:40:48.394Z,95008.03
2022-08-26T02:43:17.112Z,95017.13
2022-08-26T02:45:47.221Z,95019.28
2022-08-26T02:48:19.075Z,95015.16
2022-08-26T02:50:47.095Z,95011.06
2022-08-26T02:53:16.192Z,95015.44
2022-08-26T02:55:44.616Z,95012.63
2022-08-26T02:58:17.148Z,95009.34
2022-08-26T03:00:53.077Z,95009.81
2022-08-26T03:03:23.596Z,95011.66
2022-08-26T03:05:51.682Z,95007.44
2022-08-26T03:08:19.829Z,95002.97
2022-08-26T03:10:48.026Z,95000.31
2022-08-26T03:13:18.182Z,95001.25
2022-08-26T03:15:47.870Z,95000.84
2022-08-26T03:18:16.207Z,95011.16
2022-08-26T03:20:44.172Z,95008.09
2022-08-26T03:23:12.593Z,95007.66
2022-08-26T03:25:40.797Z,95008.38
2022-08-26T03:28:09.638Z,95005.91
2022-08-26T03:30:45.309Z,95005.44
2022-08-26T03:33:15.661Z,95001.69
2022-08-26T03:35:47.281Z,95006.41
2022-08-26T03:38:16.328Z,95009.53
2022-08-26T03:40:44.748Z,95013.69
2022-08-26T03:43:13.395Z,95006.50
2022-08-26T03:45:41.998Z,95005.59
2022-08-26T03:48:11.408Z,95011.28
2022-08-26T03:50:41.459Z,95014.81
2022-08-26T03:53:12.736Z,95013.25
2022-08-26T03:55:42.301Z,95013.06
2022-08-26T03:58:11.667Z,95016.00
2022-08-26T04:00:39.885Z,95015.91
2022-08-26T04:03:10.048Z,95013.25
2022-08-26T04:05:38.981Z,95008.16
2022-08-26T04:08:08.399Z,95006.50
2022-08-26T04:10:39.011Z,95016.78
2022-08-26T04:13:07.422Z,95009.63
2022-08-26T04:15:35.688Z,95009.81
2022-08-26T04:18:04.254Z,95011.00
2022-08-26T04:20:32.368Z,95018.66
2022-08-26T04:23:00.588Z,95018.84
2022-08-26T04:25:30.086Z,95019.81
2022-08-26T04:27:58.067Z,95016.69
2022-08-26T04:30:26.254Z,95017.66
2022-08-26T04:32:54.356Z,95013.91
2022-08-26T04:35:25.596Z,95014.88
2022-08-26T04:37:55.497Z,95016.47
2022-08-26T04:40:24.012Z,95018.38
2022-08-26T04:42:55.280Z,95019.09
2022-08-26T04:45:23.391Z,95017.94
2022-08-26T04:47:56.293Z,95012.81
2022-08-26T04:50:26.613Z,95015.13
2022-08-26T04:52:55.425Z,95014.75
2022-08-26T04:55:38.443Z,95016.06
2022-08-26T04:58:10.389Z,95023.94
2022-08-26T05:00:39.950Z,95024.16
2022-08-26T05:03:10.509Z,95021.50
2022-08-26T05:05:43.316Z,95027.31
2022-08-26T05:08:13.206Z,95035.09
2022-08-26T05:10:42.205Z,95032.00
2022-08-26T05:13:15.563Z,95040.69
2022-08-26T05:15:45.087Z,95042.28
2022-08-26T05:18:14.252Z,95041.66
2022-08-26T05:20:44.618Z,95044.25
2022-08-26T05:23:13.719Z,95050.13
2022-08-26T05:25:44.802Z,95042.84
2022-08-26T05:28:16.463Z,95041.81
2022-08-26T05:30:45.251Z,95046.91
2022-08-26T05:33:14.261Z,95049.16
2022-08-26T05:35:43.371Z,95051.88
2022-08-26T05:38:14.518Z,95055.53
2022-08-26T05:40:45.597Z,95051.16
2022-08-26T05:43:15.117Z,95056.66
2022-08-26T05:45:45.875Z,95060.59
2022-08-26T05:48:16.092Z,95057.63
2022-08-26T05:50:46.563Z,95060.47
2022-08-26T05:53:17.507Z,95061.94
2022-08-26T05:55:47.450Z,95062.72
2022-08-26T05:58:20.125Z,95064.34
2022-08-26T06:00:57.123Z,95062.09
2022-08-26T06:03:25.363Z,95065.34
2022-08-26T06:05:53.656Z,95075.38
2022-08-26T06:08:22.409Z,95067.31
2022-08-26T06:10:53.058Z,95063.00
2022-08-26T06:13:25.622Z,95069.28
2022-08-26T06:15:55.427Z,95067.25
2022-08-26T06:18:32.543Z,95077.41
2022-08-26T06:21:00.895Z,95077.59
2022-08-26T06:23:48.116Z,95087.25
2022-08-26T06:26:17.742Z,95087.66
2022-08-26T06:28:47.080Z,95090.63
2022-08-26T06:31:16.063Z,95089.03
2022-08-26T06:33:44.669Z,95084.91
2022-08-26T06:36:17.327Z,95096.03
2022-08-26T06:38:47.801Z,95104.03
2022-08-26T06:41:15.925Z,95096.22
2022-08-26T06:43:43.944Z,95103.44
2022-08-26T06:46:16.554Z,95096.03
2022-08-26T06:48:45.287Z,95097.63
2022-08-26T06:51:15.434Z,95096.91
2022-08-26T06:53:46.986Z,95102.81
2022-08-26T06:56:18.936Z,95098.91
2022-08-26T06:58:46.996Z,95101.09
2022-08-26T07:01:22.429Z,95116.13
2022-08-26T07:03:52.132Z,95104.81
2022-08-26T07:06:22.670Z,95106.22
2022-08-26T07:08:52.361Z,95114.69
2022-08-26T07:11:21.384Z,95107.97
2022-08-26T07:13:51.310Z,95118.03
2022-08-26T07:16:22.020Z,95122.22
2022-08-26T07:18:53.093Z,95126.00
2022-08-26T07:21:22.301Z,95134.25
2022-08-26T07:23:51.857Z,95137.63
2022-08-26T07:26:21.803Z,95135.94
2022-08-26T07:28:55.031Z,95136.03
2022-08-26T07:31:26.422Z,95124.31
2022-08-26T07:33:54.987Z,95125.44
2022-08-26T07:36:24.213Z,95127.63
2022-08-26T07:38:53.424Z,95131.78
2022-08-26T07:41:27.119Z,95126.06
2022-08-26T07:43:55.663Z,95126.47
2022-08-26T07:46:29.891Z,95134.94
2022-08-26T07:48:59.636Z,95133.19
2022-08-26T07:51:28.380Z,95135.44
2022-08-26T07:53:56.741Z,95137.03
2022-08-26T07:56:25.280Z,95135.44
2022-08-26T07:58:54.466Z,95143.28
2022-08-26T08:01:24.759Z,95146.63
2022-08-26T08:03:55.583Z,95146.25
2022-08-26T08:06:28.246Z,95148.84
2022-08-26T08:08:57.123Z,95148.25
2022-08-26T08:11:27.266Z,95145.88
2022-08-26T08:13:56.450Z,95143.19
2022-08-26T08:16:32.299Z,95144.25
2022-08-26T08:19:03.880Z,95146.03
2022-08-26T08:21:32.447Z,95140.38
2022-08-26T08:24:00.914Z,95134.88
2022-08-26T08:26:28.857Z,95133.66
2022-08-26T08:28:59.087Z,95129.22
2022-08-26T08:31:57.110Z,95130.78
2022-08-26T08:34:19.344Z,95134.81
2022-08-26T08:36:50.375Z,95142.41
2022-08-26T08:39:22.411Z,95146.84
2022-08-26T08:42:04.273Z,95145.66
2022-08-26T08:44:32.627Z,95152.97
2022-08-26T08:47:06.359Z,95153.38
2022-08-26T08:49:36.133Z,95159.66
2022-08-26T08:52:11.882Z,95160.56
2022-08-26T08:54:39.915Z,95161.34
2022-08-26T08:57:13.660Z,95156.03
2022-08-26T08:59:50.975Z,95162.94
2022-08-26T09:02:28.738Z,95160.75
2022-08-26T09:05:06.551Z,95164.88
2022-08-26T09:07:40.120Z,95158.91
2022-08-26T09:10:25.367Z,95160.97
2022-08-26T09:12:54.090Z,95160.97
2022-08-26T09:15:28.679Z,95163.91
2022-08-26T09:18:10.767Z,95159.97
2022-08-26T09:20:48.020Z,95158.00
2022-08-26T09:23:18.206Z,95161.94
2022-08-26T09:25:48.165Z,95167.50
2022-08-26T09:28:19.415Z,95165.50
2022-08-26T09:31:03.512Z,95156.63
2022-08-26T09:33:34.129Z,95161.34
2022-08-26T09:36:26.221Z,95168.47
2022-08-26T09:38:55.133Z,95160.38
2022-08-26T09:41:27.027Z,95157.41
2022-08-26T09:44:14.754Z,95152.88
2022-08-26T09:46:47.814Z,95147.06
2022-08-26T09:49:26.713Z,95151.47
2022-08-26T09:52:09.710Z,95152.69
2022-08-26T09:54:39.073Z,95146.78
2022-08-26T09:57:22.660Z,95146.88
2022-08-26T09:59:51.038Z,95142.16
2022-08-26T10:02:36.819Z,95148.94
2022-08-26T10:05:09.626Z,95142.63
2022-08-26T10:07:46.975Z,95138.47
2022-08-26T10:10:24.015Z,95145.97
2022-08-26T10:13:04.354Z,95150.50
2022-08-26T10:15:42.421Z,95145.78
2022-08-26T10:18:21.082Z,95139.47
2022-08-26T10:20:57.141Z,95133.31
2022-08-26T10:23:32.179Z,95131.72
2022-08-26T10:26:06.902Z,95131.78
2022-08-26T10:28:41.298Z,95127.81
2022-08-26T10:31:30.303Z,95133.63
2022-08-26T10:34:06.628Z,95135.06
2022-08-26T10:37:14.680Z,95133.25
2022-08-26T10:39:49.491Z,95130.81
2022-08-26T10:42:31.209Z,95119.97
2022-08-26T10:45:07.618Z,95123.47
2022-08-26T10:47:47.068Z,95115.34
2022-08-26T10:50:18.090Z,95117.91
2022-08-26T10:53:01.773Z,95116.34
2022-08-26T10:55:37.223Z,95111.00
2022-08-26T10:58:26.210Z,95110.00
2022-08-26T11:01:22.588Z,95100.94
2022-08-26T11:04:00.652Z,95099.44
2022-08-26T11:06:31.390Z,95090.63
2022-08-26T11:09:02.181Z,95086.50
2022-08-26T11:11:46.911Z,95085.75
2022-08-26T11:14:46.016Z,95086.09
2022-08-26T11:17:56.555Z,95080.69
2022-08-26T11:20:37.457Z,95070.06
2022-08-26T11:23:40.385Z,95074.19
2022-08-26T11:26:18.910Z,95074.78
2022-08-26T11:29:12.139Z,95077.66
2022-08-26T11:31:57.001Z,95068.72
2022-08-26T11:34:54.923Z,95079.00
2022-08-26T11:37:33.533Z,95071.84
2022-08-26T11:40:04.679Z,95065.56
2022-08-26T11:42:39.489Z,95062.41
2022-08-26T11:45:19.336Z,95075.75
2022-08-26T11:47:49.342Z,95064.63
2022-08-26T11:50:20.722Z,95069.97
2022-08-26T11:53:01.706Z,95055.53
2022-08-26T11:55:30.931Z,95054.63
2022-08-26T11:58:02.308Z,95051.50
2022-08-26T12:00:50.142Z,95053.81
2022-08-26T12:03:23.019Z,95053.81
2022-08-26T12:05:55.134Z,95044.25
2022-08-26T12:08:27.910Z,95044.53
2022-08-26T12:11:03.566Z,95047.53
2022-08-26T12:13:32.054Z,95055.56
2022-08-26T12:16:02.647Z,95049.75
2022-08-26T12:18:33.323Z,95054.31
2022-08-26T12:21:10.953Z,95049.59
2022-08-26T12:23:44.737Z,95049.75
2022-08-26T12:26:22.518Z,95048.00
2022-08-26T12:28:55.549Z,95044.88
2022-08-26T12:31:34.549Z,95053.34
2022-08-26T12:34:05.499Z,95048.31
2022-08-26T12:36:38.229Z,95044.84
2022-08-26T12:39:11.193Z,95041.53
2022-08-26T12:41:48.311Z,95040.44
2022-08-26T12:44:53.287Z,95029.00
2022-08-26T12:47:30.964Z,95033.53
2022-08-26T12:50:18.204Z,95031.63
2022-08-26T12:52:57.456Z,95028.19
2022-08-26T12:55:35.599Z,95029.09
2022-08-26T12:58:29.679Z,95022.34
2022-08-26T13:00:59.469Z,95023.75
2022-08-26T13:03:43.422Z,95013.94
2022-08-26T13:06:18.311Z,95018.44
2022-08-26T13:08:47.094Z,95013.88
2022-08-26T13:11:20.976Z,95003.81
2022-08-26T13:13:51.934Z,95004.47
2022-08-26T13:16:22.717Z,95005.56
2022-08-26T13:18:55.223Z,95001.72
2022-08-26T13:21:24.977Z,95007.13
2022-08-26T13:23:53.459Z,94994.41
2022-08-26T13:26:22.712Z,94994.78
2022-08-26T13:28:53.309Z,94985.00
2022-08-26T13:31:32.223Z,94984.41
2022-08-26T13:34:03.690Z,94979.34
2022-08-26T13:36:32.229Z,94977.16
2022-08-26T13:39:00.776Z,94981.69
2022-08-26T13:41:29.005Z,94973.78
2022-08-26T13:43:58.918Z,94966.19
2022-08-26T13:46:27.920Z,94967.69
2022-08-26T13:48:56.299Z,94961.28
2022-08-26T13:51:27.631Z,94957.16
2022-08-26T13:53:55.911Z,94955.09
2022-08-26T13:56:24.152Z,94954.22
2022-08-26T13:58:52.214Z,94947.94
2022-08-26T14:01:20.398Z,94959.56
2022-08-26T14:03:48.702Z,94954.22
2022-08-26T14:06:17.354Z,94957.66
2022-08-26T14:08:47.193Z,94945.84
2022-08-26T14:11:16.414Z,94944.94
2022-08-26T14:13:44.509Z,94939.59
2022-08-26T14:16:27.173Z,94935.91
2022-08-26T14:18:55.575Z,94938.50
2022-08-26T14:21:25.421Z,94935.78
2022-08-26T14:24:00.314Z,94940.16
2022-08-26T14:26:29.944Z,94937.41
2022-08-26T14:28:58.954Z,94942.72
2022-08-26T14:31:29.359Z,94931.44
2022-08-26T14:33:59.549Z,94927.03
2022-08-26T14:36:32.383Z,94928.50
2022-08-26T14:39:05.470Z,94935.19
2022-08-26T14:41:37.150Z,94928.00
2022-08-26T14:44:09.012Z,94921.50
2022-08-26T14:46:42.897Z,94927.22
2022-08-26T14:49:11.062Z,94926.53
2022-08-26T14:51:39.175Z,94922.22
2022-08-26T14:54:16.127Z,94925.13
2022-08-26T14:56:48.572Z,94931.88
2022-08-26T14:59:19.259Z,94929.22
2022-08-26T15:01:48.090Z,94934.41
2022-08-26T15:04:16.306Z,94936.97
2022-08-26T15:06:44.988Z,94934.50
2022-08-26T15:09:15.372Z,94926.03
2022-08-26T15:11:43.390Z,94926.50
2022-08-26T15:14:19.206Z,94916.88
2022-08-26T15:16:49.600Z,94921.13
2022-08-26T15:19:18.412Z,94919.56
2022-08-26T15:21:47.307Z,94921.25
2022-08-26T15:24:19.270Z,94923.81
2022-08-26T15:26:48.084Z,94914.00
2022-08-26T15:29:16.598Z,94918.06
2022-08-26T15:31:44.765Z,94902.94
2022-08-26T15:34:16.667Z,94905.41
2022-08-26T15:36:46.398Z,94896.94
2022-08-26T15:39:17.895Z,94895.63
2022-08-26T15:41:46.710Z,94889.94
2022-08-26T15:44:17.850Z,94889.09
2022-08-26T15:46:46.476Z,94882.56
2022-08-26T15:49:18.436Z,94889.88
2022-08-26T15:51:48.235Z,94889.63
2022-08-26T15:54:19.664Z,94888.06
2022-08-26T15:56:50.628Z,94881.16
2022-08-26T15:59:19.934Z,94882.56
2022-08-26T16:01:48.298Z,94878.66
2022-08-26T16:04:17.784Z,94880.22
2022-08-26T16:06:50.165Z,94877.19
2022-08-26T16:09:19.975Z,94876.41
2022-08-26T16:11:48.047Z,94875.13
2022-08-26T16:14:16.610Z,94872.91
2022-08-26T16:16:44.640Z,94871.34
2022-08-26T16:19:12.778Z,94874.47
2022-08-26T16:21:42.188Z,94875.91
2022-08-26T16:24:10.818Z,94885.84
2022-08-26T16:26:42.474Z,94878.13
2022-08-26T16:29:12.376Z,94878.53
2022-08-26T16:31:40.856Z,94879.97
2022-08-26T16:34:09.895Z,94885.72
2022-08-26T16:36:39.518Z,94885.09
2022-08-26T16:39:09.258Z,94886.69
2022-08-26T16:41:37.543Z,94886.47
2022-08-26T16:44:08.564Z,94884.00
2022-08-26T16:46:37.341Z,94882.81
2022-08-26T16:49:05.425Z,94887.94
2022-08-26T16:51:37.960Z,94888.13
2022-08-26T16:54:08.620Z,94884.91
2022-08-26T16:56:37.538Z,94888.81
2022-08-26T16:59:09.569Z,94891.78
2022-08-26T17:01:37.751Z,94891.25
2022-08-26T17:04:06.017Z,94892.25
2022-08-26T17:06:34.111Z,94891.31
2022-08-26T17:09:02.161Z,94883.47
2022-08-26T17:11:30.405Z,94886.97
2022-08-26T17:13:58.457Z,94894.59
2022-08-26T17:16:28.541Z,94875.22
2022-08-26T17:18:57.462Z,94871.63
2022-08-26T17:21:26.532Z,94877.63
2022-08-26T17:23:55.496Z,94876.69
2022-08-26T17:26:24.393Z,94876.19
2022-08-26T17:28:52.593Z,94878.03
2022-08-26T17:31:21.179Z,94889.19
2022-08-26T17:33:53.799Z,94890.94
2022-08-26T17:36:22.958Z,94887.31
2022-08-26T17:38:55.745Z,94889.84
2022-08-26T17:41:23.737Z,94895.31
2022-08-26T17:43:51.704Z,94889.50
2022-08-26T17:46:19.770Z,94899.78
2022-08-26T17:48:48.319Z,94899.00
2022-08-26T17:51:19.537Z,94899.66
2022-08-26T17:53:48.030Z,94898.53
2022-08-26T17:56:19.126Z,94894.13
2022-08-26T17:58:51.403Z,94889.75
2022-08-26T18:01:20.399Z,94893.13
2022-08-26T18:03:49.010Z,94894.72
2022-08-26T18:06:18.447Z,94895.81
2022-08-26T18:08:46.509Z,94899.41
2022-08-26T18:11:16.904Z,94898.63
2022-08-26T18:13:47.446Z,94899.72
2022-08-26T18:16:17.921Z,94897.50
2022-08-26T18:18:46.801Z,94891.53
2022-08-26T18:21:18.567Z,94896.88
2022-08-26T18:23:48.512Z,94891.03
2022-08-26T18:26:18.631Z,94891.47
2022-08-26T18:28:47.004Z,94893.97
2022-08-26T18:31:15.868Z,94897.72
2022-08-26T18:33:44.204Z,94898.69
2022-08-26T18:36:17.339Z,94901.19
2022-08-26T18:38:46.979Z,94900.41
2022-08-26T18:41:15.148Z,94901.81
2022-08-26T18:43:43.451Z,94904.63
2022-08-26T18:46:11.901Z,94912.16
2022-08-26T18:48:41.615Z,94914.31
2022-08-26T18:51:12.486Z,94917.00
2022-08-26T18:53:42.041Z,94915.88
2022-08-26T18:56:13.217Z,94924.03
2022-08-26T18:58:44.351Z,94928.41
2022-08-26T19:01:12.432Z,94933.75
2022-08-26T19:03:40.498Z,94937.66
2022-08-26T19:06:09.562Z,94948.91
2022-08-26T19:08:37.531Z,94939.94
2022-08-26T19:11:14.221Z,94940.53
2022-08-26T19:13:42.509Z,94939.25
2022-08-26T19:16:16.635Z,94933.94
2022-08-26T19:18:45.058Z,94937.94
2022-08-26T19:21:14.089Z,94938.69
2022-08-26T19:23:42.067Z,94941.34
2022-08-26T19:26:11.447Z,94950.59
2022-08-26T19:28:41.296Z,94956.25
2022-08-26T19:31:11.463Z,94948.75
2022-08-26T19:33:40.688Z,94952.50
2022-08-26T19:36:12.725Z,94950.31
2022-08-26T19:38:42.928Z,94951.16
2022-08-26T19:41:13.151Z,94949.88
2022-08-26T19:43:43.318Z,94952.50
2022-08-26T19:46:17.397Z,94955.06
2022-08-26T19:48:45.827Z,94947.94
2022-08-26T19:51:15.696Z,94947.31
2022-08-26T19:53:44.746Z,94953.78
2022-08-26T19:56:12.904Z,94951.78
2022-08-26T19:58:43.241Z,94957.91
2022-08-26T20:01:12.398Z,94953.19
2022-08-26T20:03:40.977Z,94956.94
2022-08-26T20:06:10.532Z,94945.09
2022-08-26T20:08:40.642Z,94954.25
2022-08-26T20:11:11.951Z,94947.38
2022-08-26T20:13:40.368Z,94950.81
2022-08-26T20:16:12.085Z,94946.28
2022-08-26T20:18:58.420Z,94945.31
2022-08-26T20:21:29.533Z,94951.25
2022-08-26T20:24:00.963Z,94949.97
2022-08-26T20:26:30.753Z,94947.75
2022-08-26T20:28:59.283Z,94945.47
2022-08-26T20:31:30.102Z,94935.13
2022-08-26T20:33:58.657Z,94943.84
2022-08-26T20:36:28.443Z,94946.00
2022-08-26T20:38:57.765Z,94950.34
2022-08-26T20:41:26.538Z,94950.56
2022-08-26T20:43:55.215Z,94956.66
2022-08-26T20:46:25.086Z,94949.41
2022-08-26T20:48:55.562Z,94953.09
2022-08-26T20:51:26.283Z,94957.25
2022-08-26T20:53:54.543Z,94951.34
2022-08-26T20:56:46.498Z,94952.91
2022-08-26T20:59:15.377Z,94951.34
2022-08-26T21:01:44.005Z,94950.94
2022-08-26T21:04:17.015Z,94952.50
2022-08-26T21:06:52.090Z,94946.63
2022-08-26T21:09:22.559Z,94956.75
2022-08-26T21:11:51.192Z,94954.69
2022-08-26T21:14:20.606Z,94951.53
2022-08-26T21:16:48.758Z,94950.56
2022-08-26T21:19:20.093Z,94946.22
2022-08-26T21:21:49.153Z,94955.88
2022-08-26T21:24:18.081Z,94959.25
2022-08-26T21:26:46.836Z,94955.50
2022-08-26T21:29:14.925Z,94961.97
2022-08-26T21:31:46.444Z,94962.22
2022-08-26T21:34:15.409Z,94968.81
2022-08-26T21:36:44.881Z,94957.09
2022-08-26T21:39:13.880Z,94969.28
2022-08-26T21:41:43.223Z,94979.94
2022-08-26T21:44:12.147Z,94968.88
2022-08-26T21:46:40.246Z,94969.06
2022-08-26T21:49:10.882Z,94969.84
2022-08-26T21:51:41.620Z,94965.13
2022-08-26T21:54:12.274Z,94959.81
2022-08-26T21:56:44.298Z,94956.06
2022-08-26T21:59:12.849Z,94957.66
2022-08-26T22:01:40.837Z,94955.00
2022-08-26T22:04:10.591Z,94955.47
2022-08-26T22:06:43.977Z,94959.22
2022-08-26T22:09:14.803Z,94952.03
2022-08-26T22:11:42.969Z,94953.41
2022-08-26T22:14:11.368Z,94961.59
2022-08-26T22:16:39.611Z,94958.66
2022-08-26T22:19:07.807Z,94962.47
2022-08-26T22:21:40.573Z,94958.25
2022-08-26T22:24:12.131Z,94967.47
2022-08-26T22:26:41.541Z,94965.88
2022-08-26T22:29:09.604Z,94963.72
2022-08-26T22:31:38.736Z,94967.66
2022-08-26T22:34:09.263Z,94963.56
2022-08-26T22:36:42.926Z,94963.56
2022-08-26T22:39:13.439Z,94971.03
2022-08-26T22:41:43.590Z,94957.25
2022-08-26T22:44:13.089Z,94964.16
2022-08-26T22:46:42.283Z,94945.22
2022-08-26T22:49:12.547Z,94960.38
2022-08-26T22:51:40.624Z,94958.22
2022-08-26T22:54:08.735Z,94955.25
2022-08-26T22:56:37.257Z,94961.84
2022-08-26T22:59:07.994Z,94957.81
2022-08-26T23:01:37.717Z,94958.84
2022-08-26T23:04:06.737Z,94955.69
2022-08-26T23:06:37.559Z,94951.94
2022-08-26T23:09:06.388Z,94948.38
2022-08-26T23:11:35.035Z,94958.03
2022-08-26T23:14:06.435Z,94954.28
2022-08-26T23:16:39.326Z,94951.81
2022-08-26T23:19:08.142Z,94949.56
2022-08-26T23:21:36.266Z,94953.28
2022-08-26T23:24:05.160Z,94958.59
2022-08-26T23:26:33.779Z,94950.16
2022-08-26T23:29:02.109Z,94948.31
2022-08-26T23:31:30.253Z,94951.84
2022-08-26T23:34:17.570Z,94948.91
2022-08-26T23:36:45.733Z,94949.50
2022-08-26T23:39:15.245Z,94957.75
2022-08-26T23:41:43.494Z,94954.81
2022-08-26T23:44:12.354Z,94953.44
2022-08-26T23:46:40.400Z,94958.75
2022-08-26T23:49:10.076Z,94949.50
2022-08-26T23:51:56.501Z,94947.72
2022-08-26T23:54:24.576Z,94957.84
2022-08-26T23:56:52.575Z,94962.38
2022-08-26T23:59:21.103Z,94952.03
